Terminal Aerodrome Forecast
Issued by NWS Charleston, WV

Current Version | Previous Version | Graphics & Text | Print | Product List | Glossary On
Versions: 1 2 3 4 5 6 7 8 9 10 11 12 13 14 15 16 17 18 19 20 21 22 23 24 25 26 27
000
FTUS41 KRLX 201431 AAA
TAFEKN
TAF AMD
KEKN 201431Z 2015/2112 24008KT 1SM -TSRA BKN025CB
      TEMPO 2016/2018 P6SM BKN040CB
     FM201800 23009G15KT P6SM VCTS BKN035CB
     FM202200 24007KT P6SM BKN050
     FM210900 24007KT 5SM SHRA OVC030=

USA.gov is the U.S. government's official web portal to all federal, state and local government web resources and services.